sensor_id;sensor_type;location;lat;lon;timestamp;temperature;humidity
78731;SHT31;68055;51.978;5.658;2023-11-19T00:00:26;15.4;78.7
78731;SHT31;68055;51.978;5.658;2023-11-19T00:02:54;15.4;78.5
78731;SHT31;68055;51.978;5.658;2023-11-19T00:05:23;15.4;78.6
78731;SHT31;68055;51.978;5.658;2023-11-19T00:07:52;15.5;78.6
78731;SHT31;68055;51.978;5.658;2023-11-19T00:10:20;15.5;78.5
78731;SHT31;68055;51.978;5.658;2023-11-19T00:12:51;15.5;78.2
78731;SHT31;68055;51.978;5.658;2023-11-19T00:15:20;15.5;78.2
78731;SHT31;68055;51.978;5.658;2023-11-19T00:17:50;15.5;78.1
78731;SHT31;68055;51.978;5.658;2023-11-19T00:20:20;15.5;78.1
78731;SHT31;68055;51.978;5.658;2023-11-19T00:22:49;15.5;78.2
78731;SHT31;68055;51.978;5.658;2023-11-19T00:25:20;15.6;78.1
78731;SHT31;68055;51.978;5.658;2023-11-19T00:27:50;15.6;78.0
78731;SHT31;68055;51.978;5.658;2023-11-19T00:30:20;15.6;77.9
78731;SHT31;68055;51.978;5.658;2023-11-19T00:32:50;15.6;78.0
78731;SHT31;68055;51.978;5.658;2023-11-19T00:35:19;15.6;77.9
78731;SHT31;68055;51.978;5.658;2023-11-19T00:37:48;15.6;77.9
78731;SHT31;68055;51.978;5.658;2023-11-19T00:40:17;15.6;77.7
78731;SHT31;68055;51.978;5.658;2023-11-19T00:42:48;15.6;77.7
78731;SHT31;68055;51.978;5.658;2023-11-19T00:45:16;15.7;77.4
78731;SHT31;68055;51.978;5.658;2023-11-19T00:47:45;15.7;77.3
78731;SHT31;68055;51.978;5.658;2023-11-19T00:50:14;15.7;77.3
78731;SHT31;68055;51.978;5.658;2023-11-19T00:52:42;15.7;77.2
78731;SHT31;68055;51.978;5.658;2023-11-19T00:55:11;15.7;77.1
78731;SHT31;68055;51.978;5.658;2023-11-19T00:57:39;15.7;77.1
78731;SHT31;68055;51.978;5.658;2023-11-19T01:00:09;15.7;77.0
78731;SHT31;68055;51.978;5.658;2023-11-19T01:02:44;15.7;77.0
78731;SHT31;68055;51.978;5.658;2023-11-19T01:05:16;15.7;77.0
78731;SHT31;68055;51.978;5.658;2023-11-19T01:07:48;15.7;77.0
78731;SHT31;68055;51.978;5.658;2023-11-19T01:10:16;15.7;77.0
78731;SHT31;68055;51.978;5.658;2023-11-19T01:12:45;15.7;77.0
78731;SHT31;68055;51.978;5.658;2023-11-19T01:15:14;15.7;76.8
78731;SHT31;68055;51.978;5.658;2023-11-19T01:17:45;15.7;76.8
78731;SHT31;68055;51.978;5.658;2023-11-19T01:20:13;15.8;76.6
78731;SHT31;68055;51.978;5.658;2023-11-19T01:22:42;15.8;76.6
78731;SHT31;68055;51.978;5.658;2023-11-19T01:25:11;15.8;76.5
78731;SHT31;68055;51.978;5.658;2023-11-19T01:27:40;15.8;76.4
78731;SHT31;68055;51.978;5.658;2023-11-19T01:30:10;15.8;76.3
78731;SHT31;68055;51.978;5.658;2023-11-19T01:32:39;15.8;76.1
78731;SHT31;68055;51.978;5.658;2023-11-19T01:35:08;15.9;75.9
78731;SHT31;68055;51.978;5.658;2023-11-19T01:37:37;15.9;75.8
78731;SHT31;68055;51.978;5.658;2023-11-19T01:40:06;15.9;75.7
78731;SHT31;68055;51.978;5.658;2023-11-19T01:42:38;15.9;75.5
78731;SHT31;68055;51.978;5.658;2023-11-19T01:45:08;15.9;75.5
78731;SHT31;68055;51.978;5.658;2023-11-19T01:47:37;15.9;75.4
78731;SHT31;68055;51.978;5.658;2023-11-19T01:50:08;15.9;75.3
78731;SHT31;68055;51.978;5.658;2023-11-19T01:52:39;15.9;75.1
78731;SHT31;68055;51.978;5.658;2023-11-19T01:55:10;15.9;75.1
78731;SHT31;68055;51.978;5.658;2023-11-19T01:57:40;15.9;75.1
78731;SHT31;68055;51.978;5.658;2023-11-19T02:00:10;15.9;75.1
78731;SHT31;68055;51.978;5.658;2023-11-19T02:02:41;15.9;74.9
78731;SHT31;68055;51.978;5.658;2023-11-19T02:05:11;15.9;74.9
78731;SHT31;68055;51.978;5.658;2023-11-19T02:07:41;15.9;74.8
78731;SHT31;68055;51.978;5.658;2023-11-19T02:10:10;15.9;74.6
78731;SHT31;68055;51.978;5.658;2023-11-19T02:12:42;15.9;74.5
78731;SHT31;68055;51.978;5.658;2023-11-19T02:15:11;15.9;74.4
78731;SHT31;68055;51.978;5.658;2023-11-19T02:17:40;15.9;74.2
78731;SHT31;68055;51.978;5.658;2023-11-19T02:20:10;15.9;74.2
78731;SHT31;68055;51.978;5.658;2023-11-19T02:22:42;15.9;74.2
78731;SHT31;68055;51.978;5.658;2023-11-19T02:25:17;15.8;74.2
78731;SHT31;68055;51.978;5.658;2023-11-19T02:27:58;15.8;74.1
78731;SHT31;68055;51.978;5.658;2023-11-19T02:30:27;15.8;74.1
78731;SHT31;68055;51.978;5.658;2023-11-19T02:32:56;15.8;74.1
78731;SHT31;68055;51.978;5.658;2023-11-19T02:35:28;15.8;74.0
78731;SHT31;68055;51.978;5.658;2023-11-19T02:37:58;15.8;73.9
78731;SHT31;68055;51.978;5.658;2023-11-19T02:40:29;15.8;73.8
78731;SHT31;68055;51.978;5.658;2023-11-19T02:42:59;15.8;73.7
78731;SHT31;68055;51.978;5.658;2023-11-19T02:45:31;15.7;73.6
78731;SHT31;68055;51.978;5.658;2023-11-19T02:48:02;15.7;73.4
78731;SHT31;68055;51.978;5.658;2023-11-19T02:50:34;15.7;73.4
78731;SHT31;68055;51.978;5.658;2023-11-19T02:53:03;15.7;73.2
78731;SHT31;68055;51.978;5.658;2023-11-19T02:55:33;15.7;72.9
78731;SHT31;68055;51.978;5.658;2023-11-19T02:58:04;15.7;73.0
78731;SHT31;68055;51.978;5.658;2023-11-19T03:00:40;15.6;72.8
78731;SHT31;68055;51.978;5.658;2023-11-19T03:03:13;15.6;72.9
78731;SHT31;68055;51.978;5.658;2023-11-19T03:05:47;15.6;73.0
78731;SHT31;68055;51.978;5.658;2023-11-19T03:08:16;15.5;72.7
78731;SHT31;68055;51.978;5.658;2023-11-19T03:10:44;15.5;72.9
78731;SHT31;68055;51.978;5.658;2023-11-19T03:13:13;15.5;72.8
78731;SHT31;68055;51.978;5.658;2023-11-19T03:15:43;15.4;73.2
78731;SHT31;68055;51.978;5.658;2023-11-19T03:18:12;15.4;73.1
78731;SHT31;68055;51.978;5.658;2023-11-19T03:20:40;15.4;73.0
78731;SHT31;68055;51.978;5.658;2023-11-19T03:23:09;15.4;73.0
78731;SHT31;68055;51.978;5.658;2023-11-19T03:25:38;15.3;73.1
78731;SHT31;68055;51.978;5.658;2023-11-19T03:28:07;15.3;72.9
78731;SHT31;68055;51.978;5.658;2023-11-19T03:30:37;15.3;72.7
78731;SHT31;68055;51.978;5.658;2023-11-19T03:33:08;15.3;72.7
78731;SHT31;68055;51.978;5.658;2023-11-19T03:35:36;15.2;72.7
78731;SHT31;68055;51.978;5.658;2023-11-19T03:38:09;15.2;72.7
78731;SHT31;68055;51.978;5.658;2023-11-19T03:40:37;15.2;72.7
78731;SHT31;68055;51.978;5.658;2023-11-19T03:43:09;15.1;72.9
78731;SHT31;68055;51.978;5.658;2023-11-19T03:45:39;15.1;72.9
78731;SHT31;68055;51.978;5.658;2023-11-19T03:48:09;15.1;72.8
78731;SHT31;68055;51.978;5.658;2023-11-19T03:50:38;15.0;72.8
78731;SHT31;68055;51.978;5.658;2023-11-19T03:53:08;15.0;72.9
78731;SHT31;68055;51.978;5.658;2023-11-19T03:55:36;14.9;72.8
78731;SHT31;68055;51.978;5.658;2023-11-19T03:58:05;14.9;72.8
78731;SHT31;68055;51.978;5.658;2023-11-19T04:00:34;14.9;73.1
78731;SHT31;68055;51.978;5.658;2023-11-19T04:03:02;14.9;73.2
78731;SHT31;68055;51.978;5.658;2023-11-19T04:05:31;14.8;73.0
78731;SHT31;68055;51.978;5.658;2023-11-19T04:07:59;14.8;72.9
78731;SHT31;68055;51.978;5.658;2023-11-19T04:10:28;14.8;73.0
78731;SHT31;68055;51.978;5.658;2023-11-19T04:12:57;14.7;72.8
78731;SHT31;68055;51.978;5.658;2023-11-19T04:15:25;14.7;73.1
78731;SHT31;68055;51.978;5.658;2023-11-19T04:17:54;14.7;73.0
78731;SHT31;68055;51.978;5.658;2023-11-19T04:20:23;14.6;72.9
78731;SHT31;68055;51.978;5.658;2023-11-19T04:22:52;14.6;73.0
78731;SHT31;68055;51.978;5.658;2023-11-19T04:25:20;14.6;73.0
78731;SHT31;68055;51.978;5.658;2023-11-19T04:27:49;14.6;72.9
78731;SHT31;68055;51.978;5.658;2023-11-19T04:30:18;14.5;72.8
78731;SHT31;68055;51.978;5.658;2023-11-19T04:32:47;14.5;72.9
78731;SHT31;68055;51.978;5.658;2023-11-19T04:35:16;14.5;72.7
78731;SHT31;68055;51.978;5.658;2023-11-19T04:37:45;14.5;72.6
78731;SHT31;68055;51.978;5.658;2023-11-19T04:40:16;14.4;72.7
78731;SHT31;68055;51.978;5.658;2023-11-19T04:42:51;14.4;73.0
78731;SHT31;68055;51.978;5.658;2023-11-19T04:45:19;14.4;72.7
78731;SHT31;68055;51.978;5.658;2023-11-19T04:47:48;14.4;72.8
78731;SHT31;68055;51.978;5.658;2023-11-19T04:50:16;14.4;73.1
78731;SHT31;68055;51.978;5.658;2023-11-19T04:52:46;14.3;72.9
78731;SHT31;68055;51.978;5.658;2023-11-19T04:55:14;14.3;72.7
78731;SHT31;68055;51.978;5.658;2023-11-19T04:57:46;14.3;72.8
78731;SHT31;68055;51.978;5.658;2023-11-19T05:00:15;14.3;72.9
78731;SHT31;68055;51.978;5.658;2023-11-19T05:02:44;14.2;73.0
78731;SHT31;68055;51.978;5.658;2023-11-19T05:05:12;14.2;72.8
78731;SHT31;68055;51.978;5.658;2023-11-19T05:07:41;14.2;73.0
78731;SHT31;68055;51.978;5.658;2023-11-19T05:10:10;14.2;72.9
78731;SHT31;68055;51.978;5.658;2023-11-19T05:12:38;14.2;72.9
78731;SHT31;68055;51.978;5.658;2023-11-19T05:15:08;14.2;73.1
78731;SHT31;68055;51.978;5.658;2023-11-19T05:17:38;14.1;73.1
78731;SHT31;68055;51.978;5.658;2023-11-19T05:20:08;14.1;73.3
78731;SHT31;68055;51.978;5.658;2023-11-19T05:22:39;14.1;73.2
78731;SHT31;68055;51.978;5.658;2023-11-19T05:25:09;14.1;73.2
78731;SHT31;68055;51.978;5.658;2023-11-19T05:27:38;14.1;73.1
78731;SHT31;68055;51.978;5.658;2023-11-19T05:30:08;14.1;73.1
78731;SHT31;68055;51.978;5.658;2023-11-19T05:32:37;14.1;73.1
78731;SHT31;68055;51.978;5.658;2023-11-19T05:35:07;14.2;73.1
78731;SHT31;68055;51.978;5.658;2023-11-19T05:37:36;14.2;72.8
78731;SHT31;68055;51.978;5.658;2023-11-19T05:40:06;14.1;72.9
78731;SHT31;68055;51.978;5.658;2023-11-19T05:42:40;14.1;73.1
78731;SHT31;68055;51.978;5.658;2023-11-19T05:45:11;14.2;73.1
78731;SHT31;68055;51.978;5.658;2023-11-19T05:47:41;14.2;72.9
78731;SHT31;68055;51.978;5.658;2023-11-19T05:50:10;14.2;72.6
78731;SHT31;68055;51.978;5.658;2023-11-19T05:52:39;14.2;72.5
78731;SHT31;68055;51.978;5.658;2023-11-19T05:55:08;14.2;72.7
78731;SHT31;68055;51.978;5.658;2023-11-19T05:57:37;14.2;72.5
78731;SHT31;68055;51.978;5.658;2023-11-19T06:00:08;14.2;72.3
78731;SHT31;68055;51.978;5.658;2023-11-19T06:02:37;14.2;72.6
78731;SHT31;68055;51.978;5.658;2023-11-19T06:05:06;14.2;72.5
78731;SHT31;68055;51.978;5.658;2023-11-19T06:07:36;14.2;72.2
78731;SHT31;68055;51.978;5.658;2023-11-19T06:10:06;14.2;72.3
78731;SHT31;68055;51.978;5.658;2023-11-19T06:12:36;14.2;72.3
78731;SHT31;68055;51.978;5.658;2023-11-19T06:15:08;14.1;72.4
78731;SHT31;68055;51.978;5.658;2023-11-19T06:17:37;14.1;72.7
78731;SHT31;68055;51.978;5.658;2023-11-19T06:20:09;14.1;72.7
78731;SHT31;68055;51.978;5.658;2023-11-19T06:22:38;14.1;72.6
78731;SHT31;68055;51.978;5.658;2023-11-19T06:25:09;14.1;72.3
78731;SHT31;68055;51.978;5.658;2023-11-19T06:27:37;14.1;72.6
78731;SHT31;68055;51.978;5.658;2023-11-19T06:30:07;14.1;72.5
78731;SHT31;68055;51.978;5.658;2023-11-19T06:32:36;14.1;72.4
78731;SHT31;68055;51.978;5.658;2023-11-19T06:35:05;14.0;72.7
78731;SHT31;68055;51.978;5.658;2023-11-19T06:37:34;14.0;72.5
78731;SHT31;68055;51.978;5.658;2023-11-19T06:40:03;14.0;72.5
78731;SHT31;68055;51.978;5.658;2023-11-19T06:42:33;14.0;72.7
78731;SHT31;68055;51.978;5.658;2023-11-19T06:45:01;14.0;72.7
78731;SHT31;68055;51.978;5.658;2023-11-19T06:47:32;14.0;72.6
78731;SHT31;68055;51.978;5.658;2023-11-19T06:50:01;14.0;72.8
78731;SHT31;68055;51.978;5.658;2023-11-19T06:52:32;14.0;72.6
78731;SHT31;68055;51.978;5.658;2023-11-19T06:55:00;14.1;72.7
78731;SHT31;68055;51.978;5.658;2023-11-19T06:57:29;14.1;72.5
78731;SHT31;68055;51.978;5.658;2023-11-19T06:59:59;14.1;72.6
78731;SHT31;68055;51.978;5.658;2023-11-19T07:02:27;14.1;72.2
78731;SHT31;68055;51.978;5.658;2023-11-19T07:04:57;14.1;72.3
78731;SHT31;68055;51.978;5.658;2023-11-19T07:07:26;14.1;72.4
78731;SHT31;68055;51.978;5.658;2023-11-19T07:09:55;14.1;72.2
78731;SHT31;68055;51.978;5.658;2023-11-19T07:12:23;14.1;72.4
78731;SHT31;68055;51.978;5.658;2023-11-19T07:14:53;14.1;72.3
78731;SHT31;68055;51.978;5.658;2023-11-19T07:17:24;14.1;72.3
78731;SHT31;68055;51.978;5.658;2023-11-19T07:19:53;14.1;72.0
78731;SHT31;68055;51.978;5.658;2023-11-19T07:22:26;14.1;72.0
78731;SHT31;68055;51.978;5.658;2023-11-19T07:24:55;14.1;72.0
78731;SHT31;68055;51.978;5.658;2023-11-19T07:27:24;14.1;72.1
78731;SHT31;68055;51.978;5.658;2023-11-19T07:29:53;14.1;72.1
78731;SHT31;68055;51.978;5.658;2023-11-19T07:32:22;14.0;72.3
78731;SHT31;68055;51.978;5.658;2023-11-19T07:34:51;14.0;72.2
78731;SHT31;68055;51.978;5.658;2023-11-19T07:37:19;14.0;72.2
78731;SHT31;68055;51.978;5.658;2023-11-19T07:39:48;14.0;72.6
78731;SHT31;68055;51.978;5.658;2023-11-19T07:42:17;14.1;72.4
78731;SHT31;68055;51.978;5.658;2023-11-19T07:44:46;14.1;72.5
78731;SHT31;68055;51.978;5.658;2023-11-19T07:47:14;14.1;72.4
78731;SHT31;68055;51.978;5.658;2023-11-19T07:49:43;14.1;72.3
78731;SHT31;68055;51.978;5.658;2023-11-19T07:52:12;14.1;72.4
78731;SHT31;68055;51.978;5.658;2023-11-19T07:54:40;14.1;72.7
78731;SHT31;68055;51.978;5.658;2023-11-19T07:57:09;14.2;72.7
78731;SHT31;68055;51.978;5.658;2023-11-19T07:59:37;14.2;72.8
78731;SHT31;68055;51.978;5.658;2023-11-19T08:02:06;14.2;72.5
78731;SHT31;68055;51.978;5.658;2023-11-19T08:04:35;14.3;72.2
78731;SHT31;68055;51.978;5.658;2023-11-19T08:07:06;14.3;72.2
78731;SHT31;68055;51.978;5.658;2023-11-19T08:09:34;14.3;72.0
78731;SHT31;68055;51.978;5.658;2023-11-19T08:12:04;14.4;71.6
78731;SHT31;68055;51.978;5.658;2023-11-19T08:14:33;14.4;71.7
78731;SHT31;68055;51.978;5.658;2023-11-19T08:17:02;14.4;71.7
78731;SHT31;68055;51.978;5.658;2023-11-19T08:19:30;14.4;71.7
78731;SHT31;68055;51.978;5.658;2023-11-19T08:21:59;14.5;71.3
78731;SHT31;68055;51.978;5.658;2023-11-19T08:24:27;14.5;71.2
78731;SHT31;68055;51.978;5.658;2023-11-19T08:26:58;14.5;71.3
78731;SHT31;68055;51.978;5.658;2023-11-19T08:29:27;14.5;71.2
78731;SHT31;68055;51.978;5.658;2023-11-19T08:31:55;14.6;71.0
78731;SHT31;68055;51.978;5.658;2023-11-19T08:34:24;14.6;70.8
78731;SHT31;68055;51.978;5.658;2023-11-19T08:36:53;14.6;70.4
78731;SHT31;68055;51.978;5.658;2023-11-19T08:39:22;14.6;71.0
78731;SHT31;68055;51.978;5.658;2023-11-19T08:41:51;14.7;70.5
78731;SHT31;68055;51.978;5.658;2023-11-19T08:44:19;14.7;70.4
78731;SHT31;68055;51.978;5.658;2023-11-19T08:46:49;14.7;70.3
78731;SHT31;68055;51.978;5.658;2023-11-19T08:49:17;14.7;70.4
78731;SHT31;68055;51.978;5.658;2023-11-19T08:51:46;14.8;70.6
78731;SHT31;68055;51.978;5.658;2023-11-19T08:54:15;14.8;70.2
78731;SHT31;68055;51.978;5.658;2023-11-19T08:56:43;14.9;70.1
78731;SHT31;68055;51.978;5.658;2023-11-19T08:59:12;14.9;69.9
78731;SHT31;68055;51.978;5.658;2023-11-19T09:01:41;14.9;69.5
78731;SHT31;68055;51.978;5.658;2023-11-19T09:04:10;15.0;69.2
78731;SHT31;68055;51.978;5.658;2023-11-19T09:06:39;15.0;69.2
78731;SHT31;68055;51.978;5.658;2023-11-19T09:09:07;15.0;68.6
78731;SHT31;68055;51.978;5.658;2023-11-19T09:11:36;15.0;68.5
78731;SHT31;68055;51.978;5.658;2023-11-19T09:14:05;15.0;69.1
78731;SHT31;68055;51.978;5.658;2023-11-19T09:16:33;15.1;69.0
78731;SHT31;68055;51.978;5.658;2023-11-19T09:19:04;15.1;68.7
78731;SHT31;68055;51.978;5.658;2023-11-19T09:21:33;15.1;68.7
78731;SHT31;68055;51.978;5.658;2023-11-19T09:24:05;15.1;68.7
78731;SHT31;68055;51.978;5.658;2023-11-19T09:26:35;15.1;68.7
78731;SHT31;68055;51.978;5.658;2023-11-19T09:29:06;15.1;68.5
78731;SHT31;68055;51.978;5.658;2023-11-19T09:31:38;15.2;68.4
78731;SHT31;68055;51.978;5.658;2023-11-19T09:34:06;15.2;68.3
78731;SHT31;68055;51.978;5.658;2023-11-19T09:36:35;15.2;68.3
78731;SHT31;68055;51.978;5.658;2023-11-19T09:39:04;15.2;68.0
78731;SHT31;68055;51.978;5.658;2023-11-19T09:41:35;15.2;68.4
78731;SHT31;68055;51.978;5.658;2023-11-19T09:44:03;15.2;68.3
78731;SHT31;68055;51.978;5.658;2023-11-19T09:46:33;15.3;68.6
78731;SHT31;68055;51.978;5.658;2023-11-19T09:49:02;15.3;68.8
78731;SHT31;68055;51.978;5.658;2023-11-19T09:51:34;15.3;68.5
78731;SHT31;68055;51.978;5.658;2023-11-19T09:54:02;15.4;68.9
78731;SHT31;68055;51.978;5.658;2023-11-19T09:56:33;15.4;68.5
78731;SHT31;68055;51.978;5.658;2023-11-19T09:59:04;15.5;68.0
78731;SHT31;68055;51.978;5.658;2023-11-19T10:01:33;15.5;68.0
78731;SHT31;68055;51.978;5.658;2023-11-19T10:04:03;15.5;67.9
78731;SHT31;68055;51.978;5.658;2023-11-19T10:06:31;15.6;67.2
78731;SHT31;68055;51.978;5.658;2023-11-19T10:09:00;15.6;67.2
78731;SHT31;68055;51.978;5.658;2023-11-19T10:11:31;15.6;67.0
78731;SHT31;68055;51.978;5.658;2023-11-19T10:13:59;15.7;67.2
78731;SHT31;68055;51.978;5.658;2023-11-19T10:16:30;15.7;66.8
78731;SHT31;68055;51.978;5.658;2023-11-19T10:19:00;15.7;66.6
78731;SHT31;68055;51.978;5.658;2023-11-19T10:21:32;15.8;66.7
78731;SHT31;68055;51.978;5.658;2023-11-19T10:24:03;15.8;66.2
78731;SHT31;68055;51.978;5.658;2023-11-19T10:26:31;15.8;65.9
78731;SHT31;68055;51.978;5.658;2023-11-19T10:29:00;15.8;66.0
78731;SHT31;68055;51.978;5.658;2023-11-19T10:31:30;15.8;65.7
78731;SHT31;68055;51.978;5.658;2023-11-19T10:33:59;15.8;65.5
78731;SHT31;68055;51.978;5.658;2023-11-19T10:36:39;15.8;65.8
78731;SHT31;68055;51.978;5.658;2023-11-19T10:39:10;15.8;65.4
78731;SHT31;68055;51.978;5.658;2023-11-19T10:41:39;15.8;65.3
78731;SHT31;68055;51.978;5.658;2023-11-19T10:44:10;15.8;65.7
78731;SHT31;68055;51.978;5.658;2023-11-19T10:46:40;15.8;65.6
78731;SHT31;68055;51.978;5.658;2023-11-19T10:49:10;15.8;65.3
78731;SHT31;68055;51.978;5.658;2023-11-19T10:51:46;15.8;65.5
78731;SHT31;68055;51.978;5.658;2023-11-19T10:54:19;15.8;65.3
78731;SHT31;68055;51.978;5.658;2023-11-19T10:56:58;15.9;65.2
78731;SHT31;68055;51.978;5.658;2023-11-19T10:59:30;15.9;65.0
78731;SHT31;68055;51.978;5.658;2023-11-19T11:02:03;15.9;65.6
78731;SHT31;68055;51.978;5.658;2023-11-19T11:04:40;15.9;65.1
78731;SHT31;68055;51.978;5.658;2023-11-19T11:07:09;15.9;64.9
78731;SHT31;68055;51.978;5.658;2023-11-19T11:09:39;15.9;64.7
78731;SHT31;68055;51.978;5.658;2023-11-19T11:12:09;15.9;64.3
78731;SHT31;68055;51.978;5.658;2023-11-19T11:14:40;16.0;64.7
78731;SHT31;68055;51.978;5.658;2023-11-19T11:17:12;16.0;64.8
78731;SHT31;68055;51.978;5.658;2023-11-19T11:19:45;16.0;64.3
78731;SHT31;68055;51.978;5.658;2023-11-19T11:22:17;16.0;64.4
78731;SHT31;68055;51.978;5.658;2023-11-19T11:25:03;16.0;64.8
78731;SHT31;68055;51.978;5.658;2023-11-19T11:27:55;16.0;64.9
78731;SHT31;68055;51.978;5.658;2023-11-19T11:30:35;16.0;65.2
78731;SHT31;68055;51.978;5.658;2023-11-19T11:35:59;16.1;64.8
78731;SHT31;68055;51.978;5.658;2023-11-19T11:38:36;16.1;64.4
78731;SHT31;68055;51.978;5.658;2023-11-19T11:41:20;16.1;64.1
78731;SHT31;68055;51.978;5.658;2023-11-19T11:43:50;16.1;64.6
78731;SHT31;68055;51.978;5.658;2023-11-19T11:47:06;16.2;64.9
78731;SHT31;68055;51.978;5.658;2023-11-19T11:49:35;16.2;64.9
78731;SHT31;68055;51.978;5.658;2023-11-19T11:52:04;16.3;64.9
78731;SHT31;68055;51.978;5.658;2023-11-19T11:54:34;16.3;64.7
78731;SHT31;68055;51.978;5.658;2023-11-19T11:57:06;16.3;63.7
78731;SHT31;68055;51.978;5.658;2023-11-19T11:59:56;16.4;63.7
78731;SHT31;68055;51.978;5.658;2023-11-19T12:02:25;16.4;63.4
78731;SHT31;68055;51.978;5.658;2023-11-19T12:04:54;16.4;63.3
78731;SHT31;68055;51.978;5.658;2023-11-19T12:07:24;16.5;63.4
78731;SHT31;68055;51.978;5.658;2023-11-19T12:10:07;16.5;62.5
78731;SHT31;68055;51.978;5.658;2023-11-19T12:12:38;16.5;62.7
78731;SHT31;68055;51.978;5.658;2023-11-19T12:15:09;16.5;63.1
78731;SHT31;68055;51.978;5.658;2023-11-19T12:18:01;16.5;63.3
78731;SHT31;68055;51.978;5.658;2023-11-19T12:20:33;16.5;62.8
78731;SHT31;68055;51.978;5.658;2023-11-19T12:23:05;16.5;62.7
78731;SHT31;68055;51.978;5.658;2023-11-19T12:25:34;16.5;62.4
78731;SHT31;68055;51.978;5.658;2023-11-19T12:28:03;16.5;62.5
78731;SHT31;68055;51.978;5.658;2023-11-19T12:30:32;16.5;62.2
78731;SHT31;68055;51.978;5.658;2023-11-19T12:33:09;16.5;62.2
78731;SHT31;68055;51.978;5.658;2023-11-19T12:35:40;16.5;61.8
78731;SHT31;68055;51.978;5.658;2023-11-19T12:38:22;16.5;62.1
78731;SHT31;68055;51.978;5.658;2023-11-19T12:41:04;16.5;62.4
78731;SHT31;68055;51.978;5.658;2023-11-19T12:43:33;16.6;62.0
78731;SHT31;68055;51.978;5.658;2023-11-19T12:46:03;16.6;61.9
78731;SHT31;68055;51.978;5.658;2023-11-19T12:48:31;16.6;62.3
78731;SHT31;68055;51.978;5.658;2023-11-19T12:51:00;16.6;61.8
78731;SHT31;68055;51.978;5.658;2023-11-19T12:53:29;16.7;61.8
78731;SHT31;68055;51.978;5.658;2023-11-19T12:56:09;16.7;61.4
78731;SHT31;68055;51.978;5.658;2023-11-19T12:58:37;16.7;61.1
78731;SHT31;68055;51.978;5.658;2023-11-19T13:01:09;16.7;61.4
78731;SHT31;68055;51.978;5.658;2023-11-19T13:03:38;16.7;61.6
78731;SHT31;68055;51.978;5.658;2023-11-19T13:06:09;16.7;61.3
78731;SHT31;68055;51.978;5.658;2023-11-19T13:08:39;16.7;61.3
78731;SHT31;68055;51.978;5.658;2023-11-19T13:11:08;16.7;61.6
78731;SHT31;68055;51.978;5.658;2023-11-19T13:13:59;16.7;61.4
78731;SHT31;68055;51.978;5.658;2023-11-19T13:16:31;16.7;61.4
78731;SHT31;68055;51.978;5.658;2023-11-19T13:19:00;16.7;61.7
78731;SHT31;68055;51.978;5.658;2023-11-19T13:21:31;16.7;61.3
78731;SHT31;68055;51.978;5.658;2023-11-19T13:24:00;16.7;62.0
78731;SHT31;68055;51.978;5.658;2023-11-19T13:26:30;16.7;61.7
78731;SHT31;68055;51.978;5.658;2023-11-19T13:28:59;16.7;62.0
78731;SHT31;68055;51.978;5.658;2023-11-19T13:31:30;16.7;62.6
78731;SHT31;68055;51.978;5.658;2023-11-19T13:33:59;16.7;62.4
78731;SHT31;68055;51.978;5.658;2023-11-19T13:36:27;16.7;62.7
78731;SHT31;68055;51.978;5.658;2023-11-19T13:38:56;16.7;62.2
78731;SHT31;68055;51.978;5.658;2023-11-19T13:41:25;16.7;61.9
78731;SHT31;68055;51.978;5.658;2023-11-19T13:43:54;16.7;62.1
78731;SHT31;68055;51.978;5.658;2023-11-19T13:46:22;16.7;61.7
78731;SHT31;68055;51.978;5.658;2023-11-19T13:48:53;16.7;62.0
78731;SHT31;68055;51.978;5.658;2023-11-19T13:51:21;16.7;62.7
78731;SHT31;68055;51.978;5.658;2023-11-19T13:53:50;16.7;63.2
78731;SHT31;68055;51.978;5.658;2023-11-19T13:56:19;16.7;63.1
78731;SHT31;68055;51.978;5.658;2023-11-19T13:58:47;16.6;63.5
78731;SHT31;68055;51.978;5.658;2023-11-19T14:01:16;16.6;63.8
78731;SHT31;68055;51.978;5.658;2023-11-19T14:03:44;16.5;63.8
78731;SHT31;68055;51.978;5.658;2023-11-19T14:06:14;16.5;64.1
78731;SHT31;68055;51.978;5.658;2023-11-19T14:08:42;16.5;64.7
78731;SHT31;68055;51.978;5.658;2023-11-19T14:11:11;16.5;64.8
78731;SHT31;68055;51.978;5.658;2023-11-19T14:13:41;16.4;64.6
78731;SHT31;68055;51.978;5.658;2023-11-19T14:16:12;16.4;64.2
78731;SHT31;68055;51.978;5.658;2023-11-19T14:18:41;16.4;64.4
78731;SHT31;68055;51.978;5.658;2023-11-19T14:21:10;16.4;64.3
78731;SHT31;68055;51.978;5.658;2023-11-19T14:23:38;16.4;64.1
78731;SHT31;68055;51.978;5.658;2023-11-19T14:26:09;16.4;63.7
78731;SHT31;68055;51.978;5.658;2023-11-19T14:28:38;16.4;63.5
78731;SHT31;68055;51.978;5.658;2023-11-19T14:31:07;16.4;63.2
78731;SHT31;68055;51.978;5.658;2023-11-19T14:33:36;16.3;63.0
78731;SHT31;68055;51.978;5.658;2023-11-19T14:36:05;16.3;63.1
78731;SHT31;68055;51.978;5.658;2023-11-19T14:38:34;16.3;63.2
78731;SHT31;68055;51.978;5.658;2023-11-19T14:41:03;16.2;63.1
78731;SHT31;68055;51.978;5.658;2023-11-19T14:43:31;16.2;63.4
78731;SHT31;68055;51.978;5.658;2023-11-19T14:46:01;16.1;63.3
78731;SHT31;68055;51.978;5.658;2023-11-19T14:48:30;16.1;63.1
78731;SHT31;68055;51.978;5.658;2023-11-19T14:50:58;16.1;63.6
78731;SHT31;68055;51.978;5.658;2023-11-19T14:53:28;16.0;63.7
78731;SHT31;68055;51.978;5.658;2023-11-19T14:55:56;16.0;64.2
78731;SHT31;68055;51.978;5.658;2023-11-19T14:58:25;16.0;64.4
78731;SHT31;68055;51.978;5.658;2023-11-19T15:00:54;15.9;64.1
78731;SHT31;68055;51.978;5.658;2023-11-19T15:03:22;15.9;64.2
78731;SHT31;68055;51.978;5.658;2023-11-19T15:05:53;15.9;64.3
78731;SHT31;68055;51.978;5.658;2023-11-19T15:08:22;15.9;64.7
78731;SHT31;68055;51.978;5.658;2023-11-19T15:10:50;15.8;64.9
78731;SHT31;68055;51.978;5.658;2023-11-19T15:13:19;15.8;64.8
78731;SHT31;68055;51.978;5.658;2023-11-19T15:15:48;15.8;65.0
78731;SHT31;68055;51.978;5.658;2023-11-19T15:18:16;15.8;65.1
78731;SHT31;68055;51.978;5.658;2023-11-19T15:20:48;15.8;65.0
78731;SHT31;68055;51.978;5.658;2023-11-19T15:23:17;15.8;65.2
78731;SHT31;68055;51.978;5.658;2023-11-19T15:25:46;15.8;65.2
78731;SHT31;68055;51.978;5.658;2023-11-19T15:28:15;15.8;65.2
78731;SHT31;68055;51.978;5.658;2023-11-19T15:30:45;15.8;64.7
78731;SHT31;68055;51.978;5.658;2023-11-19T15:33:14;15.8;64.6
78731;SHT31;68055;51.978;5.658;2023-11-19T15:35:43;15.8;64.8
78731;SHT31;68055;51.978;5.658;2023-11-19T15:38:12;15.9;64.7
78731;SHT31;68055;51.978;5.658;2023-11-19T15:40:40;15.8;64.7
78731;SHT31;68055;51.978;5.658;2023-11-19T15:43:09;15.9;64.7
78731;SHT31;68055;51.978;5.658;2023-11-19T15:45:38;15.9;64.7
78731;SHT31;68055;51.978;5.658;2023-11-19T15:48:07;15.8;64.8
78731;SHT31;68055;51.978;5.658;2023-11-19T15:50:35;15.8;64.9
78731;SHT31;68055;51.978;5.658;2023-11-19T15:53:04;15.8;64.9
78731;SHT31;68055;51.978;5.658;2023-11-19T15:55:32;15.8;65.1
78731;SHT31;68055;51.978;5.658;2023-11-19T15:58:01;15.8;65.3
78731;SHT31;68055;51.978;5.658;2023-11-19T16:00:29;15.8;65.4
78731;SHT31;68055;51.978;5.658;2023-11-19T16:02:58;15.7;65.9
78731;SHT31;68055;51.978;5.658;2023-11-19T16:05:26;15.7;65.9
78731;SHT31;68055;51.978;5.658;2023-11-19T16:07:55;15.7;65.8
78731;SHT31;68055;51.978;5.658;2023-11-19T16:10:23;15.7;66.0
78731;SHT31;68055;51.978;5.658;2023-11-19T16:12:52;15.7;66.1
78731;SHT31;68055;51.978;5.658;2023-11-19T16:15:20;15.7;65.8
78731;SHT31;68055;51.978;5.658;2023-11-19T16:17:49;15.7;65.8
78731;SHT31;68055;51.978;5.658;2023-11-19T16:20:19;15.6;66.0
78731;SHT31;68055;51.978;5.658;2023-11-19T16:22:48;15.6;66.1